Jepson Prairie Reserve, California Weather observations

Data are for 10 minute period ending at time listed.
 Day   Time   Solar   Ave.   Ave.  Ave.  Vector  Max.   Baro.   Total    
  of    of     Rad.   Air    Rel.  Wind   Wind   Wind  Press.  Precip.   
Year   Day            Temp.  Hum.  Speed  Dir.   Gust                    
2014   (PST)  Kw/m2    F      %     mph   deg.    mph    mb.     in.     
-------------------------------------------------------------------------
 105   13:10   0.86   72.2    55    7.6   220    11.8   1012.2    0.00 
 105   13:20   0.85   72.9    56    9.1   219    13.0   1012.2    0.00 
 105   13:30   0.84   72.8    55    9.4   221    12.1   1012.2    0.00 
 105   13:40   0.83   73.1    54    9.1   213    12.7   1011.9    0.00 
 105   13:50   0.81   73.5    53    8.1   208    11.8   1011.9    0.00 
 105   14:00   0.79   74.2    53    7.9   215    11.5   1011.5    0.00 
 105   14:10   0.75   74.2    52    7.6   218    11.7   1011.5    0.00 
 105   14:20   0.75   74.9    52    7.4   210    10.4   1011.2    0.00 
 105   14:30   0.74   75.2    52    6.9   213     9.6   1011.2    0.00 
 105   14:40   0.71   75.3    51    7.5   216    10.1   1011.2    0.00 
 105   14:50   0.69   75.4    50    6.9   225     9.5   1010.8    0.00 
 105   15:00   0.66   75.6    50    7.2   204    10.4   1010.5    0.00 
 105   15:10   0.63   76.0    49    5.8   195     9.4   1010.5    0.00 
 105   15:20   0.60   76.0    49    7.5   220    10.1   1010.2    0.00 
 105   15:30   0.57   75.9    48    6.8   222     9.8   1010.2    0.00 
 105   15:40   0.54   75.9    48    7.4   207     9.6   1010.2    0.00 
 105   15:50   0.51   75.9    49    8.1   216    11.2   1010.2    0.00 
 105   16:00   0.48   75.5    49    9.2   221    11.2   1009.8    0.00 
 105   16:10   0.45   75.3    49    9.9   216    12.1   1009.8    0.00 
 105   16:20   0.41   75.0    50    9.8   223    13.0   1009.8    0.00 
 105   16:30   0.38   74.7    48   10.7   226    13.7   1009.8    0.00 
 105   16:40   0.34   74.1    51   12.1   222    15.0   1009.5    0.00 
 105   16:50   0.31   73.0    57   12.8   227    16.1   1009.5    0.00 
 105   17:00   0.27   72.1    60   13.5   227    16.6   1009.5    0.00 
 105   17:10   0.24   71.3    61   13.7   226    16.5   1009.5    0.00 
 105   17:20   0.21   70.8    64   13.2   226    17.1   1009.5    0.00 
 105   17:30   0.17   69.9    64   14.2   224    18.0   1009.1    0.00 
 105   17:40   0.13   69.0    68   12.4   224    17.0   1009.1    0.00 
 105   17:50   0.10   67.7    69   14.7   223    18.6   1009.1    0.00 
 105   18:00   0.08   66.7    70   14.8   222    18.6   1009.1    0.00 
 105   18:10   0.07   66.0    70   14.6   220    18.3   1009.1    0.00 
 105   18:20   0.05   64.9    72   13.2   221    16.6   1008.8    0.00 
 105   18:30   0.03   64.1    73   14.1   220    16.7   1008.8    0.00 
 105   18:40   0.01   63.2    74   14.1   217    17.2   1008.8    0.00 
 105   18:50   0.01   62.2    74   14.4   215    17.8   1008.8    0.00 
 105   19:00   0.00   61.6    72   15.8   220    20.0   1008.8    0.00 
 105   19:10   0.00   61.2    72   16.3   222    19.7   1008.8    0.00 
 105   19:20   0.00   60.8    73   15.3   213    18.0   1008.8    0.00 
 105   19:30   0.00   60.7    73   16.0   214    19.2   1008.8    0.00 
 105   19:40   0.00   61.0    72   17.0   215    20.2   1008.8    0.00 
 105   19:50   0.00   60.9    72   16.6   213    20.1   1008.8    0.00 
 105   20:00   0.00   60.7    73   16.0   209    21.0   1009.1    0.00 
 105   20:10   0.00   60.8    72   16.8   212    20.6   1009.1    0.00 
 105   20:20   0.00   60.2    74   14.1   208    17.1   1009.1    0.00 
 105   20:30   0.00   59.5    75   13.8   209    17.7   1009.1    0.00 
 105   20:40   0.00   59.6    75   15.1   211    18.1   1009.1    0.00 
 105   20:50   0.00   59.3    76   14.6   207    18.5   1009.1    0.00 
 105   21:00   0.00   59.2    75   13.4   209    17.8   1009.1    0.00 
 105   21:10   0.00   58.9    75   13.8   210    17.8   1009.1    0.00 
 105   21:20   0.00   58.9    74   13.7   209    18.0   1009.1    0.00 
 105   21:30   0.00   58.3    76   15.8   214    21.6   1009.1    0.00 
 105   21:40   0.00   58.5    74   15.1   219    18.7   1009.1    0.00 
 105   21:50   0.00   58.0    74   16.4   216    20.3   1009.1    0.00 
 105   22:00   0.00   57.6    74   17.2   220    21.5   1008.8    0.00 
 105   22:10   0.00   57.2    75   15.2   220    20.5   1008.8    0.00 
 105   22:20   0.00   56.7    78   13.7   216    17.3   1008.8    0.00 
 105   22:30   0.00   56.9    77   13.6   216    18.4   1008.8    0.00 
 105   22:40   0.00   57.0    76   14.6   216    18.6   1008.8    0.00 
 105   22:50   0.00   56.7    77   13.8   204    17.3   1008.5    0.00 
 105   23:00   0.00   56.4    79   14.4   209    17.2   1008.5    0.00 
 105   23:10   0.00   56.3    80   15.3   211    19.4   1008.5    0.00 
 105   23:20   0.00   56.2    81   14.2   209    17.6   1008.8    0.00 
 105   23:30   0.00   56.2    80   15.5   211    19.1   1008.8    0.00 
 105   23:40   0.00   56.2    81   14.5   206    17.9   1008.5    0.00 
 105   23:50   0.00   55.9    82   13.0   206    16.8   1008.5    0.00 
 106    0:00   0.00   55.6    82   12.2   208    15.5   1008.5    0.00 
 106    0:10   0.00   55.2    84   13.6   216    16.7   1008.8    0.00 
 106    0:20   0.00   55.2    85   14.7   215    19.2   1008.8    0.00 
 106    0:30   0.00   55.8    83   14.6   209    17.9   1008.5    0.00 
 106    0:40   0.00   55.6    83   13.7   209    16.4   1008.5    0.00 
 106    0:50   0.00   55.6    82   14.2   213    18.7   1008.5    0.00 
 106    1:00   0.00   55.7    81   13.7   215    18.1   1008.8    0.00 
 106    1:10   0.00   55.2    82   14.6   212    17.5   1008.8    0.00 
 106    1:20   0.00   55.2    83   14.2   218    18.2   1008.8    0.00 
 106    1:30   0.00   55.2    83   14.2   225    18.0   1008.8    0.00 
 106    1:40   0.00   54.7    85   10.5   219    13.4   1008.8    0.00 
 106    1:50   0.00   54.7    86   13.8   212    19.7   1008.8    0.00 
 106    2:00   0.00   55.3    84   13.5   214    17.0   1008.8    0.00 
 106    2:10   0.00   54.9    85   11.8   212    14.4   1008.5    0.00 
 106    2:20   0.00   54.3    88   11.7   212    15.9   1008.5    0.00 
 106    2:30   0.00   54.3    87   10.9   207    17.1   1008.8    0.00 
 106    2:40   0.00   54.2    88   10.8   211    17.3   1008.8    0.00 
 106    2:50   0.00   53.5    90   10.0   217    13.7   1008.8    0.00 
 106    3:00   0.00   53.7    90   12.5   214    17.4   1008.8    0.00 
 106    3:10   0.00   54.2    89   12.7   211    15.0   1008.8    0.00 
 106    3:20   0.00   53.9    90   11.8   214    15.0   1008.8    0.00 
 106    3:30   0.00   53.7    91   12.7   212    15.6   1008.8    0.00 
 106    3:40   0.00   53.7    91   12.8   212    18.2   1008.8    0.00 
 106    3:50   0.00   53.6    92   12.4   212    15.6   1008.8    0.00 
 106    4:00   0.00   53.5    92   12.7   209    16.4   1008.8    0.00 
 106    4:10   0.00   53.6    91   12.1   213    16.1   1008.8    0.00 
 106    4:20   0.00   53.2    91   11.5   214    14.0   1008.5    0.00 
 106    4:30   0.00   52.8    93   10.2   214    13.5   1008.5    0.00 
 106    4:40   0.00   53.0    92   13.5   214    17.7   1008.5    0.00 
 106    4:50   0.00   53.0    92   14.5   211    17.8   1008.8    0.00 
 106    5:00   0.00   53.1    92   12.5   214    17.0   1008.8    0.00 
 106    5:10   0.00   52.8    91    7.8   213    11.4   1009.1    0.00 
 106    5:20   0.00   52.2    92    8.8   215    13.4   1009.1    0.00 
 106    5:30   0.00   52.0    92    8.4   227    13.4   1009.1    0.00 
 106    5:40   0.01   51.6    92    8.3   226    10.5   1009.1    0.00 
 106    5:50   0.02   51.7    92    7.5   229    11.8   1009.5    0.00 
 106    6:00   0.04   52.3    92    8.4   232    10.7   1009.5    0.00 
 106    6:10   0.07   52.7    92    7.7   229     9.3   1009.5    0.00 
 106    6:20   0.09   53.2    92    6.7   223     9.3   1009.5    0.00 
 106    6:30   0.12   54.2    91    7.5   225    10.2   1009.8    0.00 
 106    6:40   0.16   55.0    90    7.2   230     9.6   1009.8    0.00 
 106    6:50   0.19   55.9    89    8.1   218    10.0   1009.8    0.00 
 106    7:00   0.22   57.1    88    6.9   216     8.8   1009.8    0.00 
 106    7:10   0.26   58.2    86    9.1   218    11.6   1010.2    0.00 
 106    7:20   0.29   59.0    84    7.7   218    10.7   1010.2    0.00 
 106    7:30   0.32   59.9    83    7.9   228     9.7   1010.2    0.00 
 106    7:40   0.36   60.4    80    8.3   232    10.2   1010.2    0.00 
 106    7:50   0.40   61.2    77    8.7   229    10.9   1010.2    0.00 
 106    8:00   0.43   62.0    76    8.8   211    10.9   1010.2    0.00 
 106    8:10   0.46   63.0    74    9.7   208    12.1   1010.2    0.00 
 106    8:20   0.50   63.4    72   10.1   213    12.3   1010.2    0.00 
 106    8:30   0.53   64.8    69    7.9   232    10.7   1010.2    0.00 
 106    8:40   0.55   65.4    66    7.0   239     8.8   1010.2    0.00 
 106    8:50   0.58   66.6    60    6.5   255     9.7   1010.2    0.00 
 106    9:00   0.61   67.7    56    6.7   278     9.8   1010.5    0.00 
 106    9:10   0.63   68.6    51    9.5   302    17.3   1010.5    0.00 
 106    9:20   0.66   70.4    37   16.2   322    22.6   1010.2    0.00 
 106    9:30   0.70   71.0    36   17.0   324    21.5   1010.2    0.00 
 106    9:40   0.72   71.5    34   18.0   324    24.1   1010.2    0.00 
 106    9:50   0.76   71.7    34   18.9   329    23.8   1010.2    0.00 
 106   10:00   0.69   71.7    35   18.3   328    25.4   1010.2    0.00 
 106   10:10   0.69   72.0    35   20.7   326    26.2   1010.2    0.00 
 106   10:20   0.76   72.1    35   19.1   329    24.4   1010.5    0.00 
 106   10:30   0.82   72.5    34   19.1   332    26.5   1010.2    0.00 
 106   10:40   0.82   73.0    34   19.4   330    24.8   1010.2    0.00 
 106   10:50   0.84   73.4    35   18.6   333    23.5   1010.2    0.00 
 106   11:00   0.83   74.0    35   17.8   333    23.8   1010.2    0.00 
 106   11:10   0.88   74.1    34   18.1   336    23.2   1010.2    0.00 
 106   11:20   0.91   74.4    34   18.2   336    22.1   1009.8    0.00 
 106   11:30   0.93   74.9    34   17.6   329    22.5   1009.8    0.00 
 106   11:40   0.93   75.4    33   17.5   334    22.8   1009.8    0.00 
 106   11:50   0.97   75.9    32   18.3   333    23.8   1009.5    0.00 
 106   12:00   0.73   76.2    32   18.7   336    22.9   1009.5    0.00 
 106   12:10   0.69   76.2    32   17.6   326    22.4   1009.5    0.00 
 106   12:20   0.99   76.7    33   15.0   320    18.9   1009.1    0.00 
 106   12:30   0.68   76.8    34   14.8   330    19.1   1009.1    0.00 
 106   12:40   0.81   76.8    33   15.3   330    19.0   1009.1    0.00 
 106   12:50   0.40   76.4    34   14.4   332    19.1   1009.1    0.00 
 106   13:00   0.57   76.1    36   11.8   330    15.6   1009.1    0.00 

Return to Jepson Prairie Reserve graphs page.


Western Regional Climate Center,wrcc@dri.edu